Time;durP1;ratioP1;P1;durP2;ratioP2;P2;SDS_P1;SDS_P2;PMS_P1;PMS_P2;Temp;Humidity;BMP_temperature;BMP_pressure;BME280_temperature;BME280_humidity;BME280_pressure;Samples;Min_cycle;Max_cycle;Signal;HPM_P1;HPM_P2
2022/04/27 00:04:10;;;;;;;116.63;56.23;;;4.60;99.90;;;;;;10494812;28;20037;-83
2022/04/27 00:09:11;;;;;;;108.03;47.37;;;4.60;99.90;;;;;;10492278;28;20033;-82
2022/04/27 00:14:12;;;;;;;103.97;49.37;;;4.70;99.90;;;;;;10494542;28;20028;-83
2022/04/27 00:19:13;;;;;;;127.67;53.43;;;4.80;99.90;;;;;;10494151;28;20036;-83
2022/04/27 00:24:13;;;;;;;103.73;48.40;;;4.90;99.90;;;;;;10492905;28;20540;-83
2022/04/27 00:29:14;;;;;;;128.83;51.83;;;4.80;99.90;;;;;;10493669;28;20384;-83
2022/04/27 00:34:15;;;;;;;139.30;57.77;;;4.90;99.90;;;;;;10492310;28;20060;-84
2022/04/27 00:39:17;;;;;;;163.83;60.07;;;5.00;99.90;;;;;;10493343;28;20383;-84
2022/04/27 00:44:18;;;;;;;167.83;60.60;;;5.10;99.90;;;;;;10492813;28;20506;-84
2022/04/27 00:49:18;;;;;;;113.07;46.80;;;5.10;99.90;;;;;;10491616;28;20039;-85
2022/04/27 00:54:22;;;;;;;119.53;48.20;;;5.10;99.90;;;;;;10491428;28;20035;-84
2022/04/27 00:59:23;;;;;;;103.77;44.10;;;5.10;99.90;;;;;;10491351;28;20054;-85
2022/04/27 01:04:24;;;;;;;100.70;42.80;;;5.30;99.90;;;;;;10491698;28;20025;-83
2022/04/27 01:09:25;;;;;;;110.90;43.30;;;5.30;99.90;;;;;;10491208;28;20033;-84
2022/04/27 01:14:26;;;;;;;106.80;42.70;;;5.40;99.90;;;;;;10490046;28;20119;-84
2022/04/27 01:19:27;;;;;;;91.77;38.10;;;5.40;99.90;;;;;;10491002;28;20037;-85
2022/04/27 01:24:27;;;;;;;93.63;38.07;;;5.40;99.90;;;;;;10489866;28;20043;-84
2022/04/27 01:29:28;;;;;;;74.50;35.33;;;5.40;99.90;;;;;;10491135;28;20039;-83
2022/04/27 01:34:29;;;;;;;317.10;139.47;;;5.50;99.90;;;;;;10489501;28;20067;-84
2022/04/27 01:39:29;;;;;;;238.57;111.20;;;5.40;99.90;;;;;;10490017;28;20046;-84
2022/04/27 01:44:31;;;;;;;125.03;59.37;;;5.30;99.90;;;;;;10491940;28;20505;-84
2022/04/27 01:49:32;;;;;;;88.13;38.70;;;5.30;99.90;;;;;;10489579;28;20167;-84
2022/04/27 01:54:32;;;;;;;87.03;35.63;;;5.20;99.90;;;;;;10491043;28;20127;-84
2022/04/27 01:59:34;;;;;;;78.73;35.27;;;5.00;99.90;;;;;;10489330;28;20468;-84
2022/04/27 02:04:35;;;;;;;69.90;32.63;;;5.00;99.90;;;;;;10490055;28;20024;-84
2022/04/27 02:09:35;;;;;;;79.07;33.40;;;4.90;99.90;;;;;;10489618;28;20032;-84
2022/04/27 02:14:36;;;;;;;87.80;35.87;;;4.80;99.90;;;;;;10489902;28;20463;-84
2022/04/27 02:19:37;;;;;;;76.17;32.97;;;4.80;99.90;;;;;;10489202;28;20539;-84
2022/04/27 02:24:38;;;;;;;86.93;36.20;;;4.60;99.90;;;;;;10488725;28;20036;-84
2022/04/27 02:29:39;;;;;;;89.37;39.17;;;4.50;99.90;;;;;;10490061;28;20021;-85
2022/04/27 02:34:39;;;;;;;84.07;37.83;;;4.50;99.90;;;;;;10489248;28;20109;-83
2022/04/27 02:39:40;;;;;;;101.00;37.33;;;4.60;99.90;;;;;;10489660;28;20048;-85
2022/04/27 02:44:40;;;;;;;89.60;39.40;;;4.50;99.90;;;;;;10488668;28;20075;-84
2022/04/27 02:55:00;;;;;;;101.60;37.00;;;4.20;99.90;;;;;;10496812;28;20067;-84
2022/04/27 03:00:01;;;;;;;95.63;41.53;;;4.10;99.90;;;;;;10496026;28;20040;-84
2022/04/27 03:05:02;;;;;;;113.70;41.50;;;4.00;99.90;;;;;;10495892;28;20036;-82
2022/04/27 03:10:03;;;;;;;113.67;45.57;;;4.00;99.90;;;;;;10495352;28;20073;-82
2022/04/27 03:15:05;;;;;;;113.97;46.33;;;4.00;99.90;;;;;;10496414;28;20033;-82
2022/04/27 03:20:06;;;;;;;109.10;45.83;;;4.20;99.90;;;;;;10495623;28;20040;-84
2022/04/27 03:25:07;;;;;;;111.53;43.83;;;4.20;99.90;;;;;;10495504;28;20123;-83
2022/04/27 03:30:09;;;;;;;109.50;43.17;;;4.20;99.90;;;;;;10494094;28;20062;-81
2022/04/27 03:35:09;;;;;;;104.07;42.53;;;4.30;99.90;;;;;;10487351;28;20070;-82
2022/04/27 03:40:11;;;;;;;86.73;37.83;;;4.40;99.90;;;;;;10494880;28;20111;-80
2022/04/27 03:45:12;;;;;;;74.23;33.27;;;4.40;99.90;;;;;;10493659;28;20046;-83
2022/04/27 03:50:13;;;;;;;72.27;32.43;;;4.60;99.90;;;;;;10494928;28;20032;-85
2022/04/27 03:55:14;;;;;;;73.27;33.53;;;4.70;99.90;;;;;;10493431;28;20021;-81
2022/04/27 04:00:14;;;;;;;71.17;32.03;;;4.80;99.90;;;;;;10493210;28;20486;-83
2022/04/27 04:05:15;;;;;;;56.17;28.50;;;4.90;99.90;;;;;;10476501;28;20036;-83
2022/04/27 04:10:16;;;;;;;54.80;25.60;;;5.00;99.90;;;;;;10463607;28;20035;-83
2022/04/27 04:15:16;;;;;;;44.63;20.60;;;5.20;99.90;;;;;;10468854;28;20024;-81
2022/04/27 04:20:17;;;;;;;29.07;15.40;;;5.40;99.90;;;;;;10469636;28;20024;-84
2022/04/27 04:30:37;;;;;;;41.93;21.80;;;5.70;99.90;;;;;;10489480;28;20032;-84
2022/04/27 04:35:38;;;;;;;45.83;23.60;;;5.70;99.90;;;;;;10499130;22;20053;-83
2022/04/27 04:40:38;;;;;;;45.30;23.50;;;5.70;99.90;;;;;;10483736;28;20594;-83
2022/04/27 04:45:39;;;;;;;49.67;24.23;;;5.60;99.90;;;;;;10472699;28;20032;-83
2022/04/27 04:50:40;;;;;;;51.20;25.07;;;5.60;99.90;;;;;;10449453;28;20021;-83
2022/04/27 04:55:40;;;;;;;53.03;26.03;;;5.50;99.90;;;;;;10452668;28;20078;-83
2022/04/27 05:00:41;;;;;;;50.37;24.53;;;5.70;99.90;;;;;;10449199;28;20029;-83
2022/04/27 05:05:42;;;;;;;49.83;23.97;;;5.70;99.90;;;;;;10450831;28;20557;-84
2022/04/27 05:10:43;;;;;;;49.93;25.67;;;5.80;99.90;;;;;;10451459;28;20480;-82
2022/04/27 05:15:44;;;;;;;51.67;26.23;;;6.00;99.90;;;;;;10451129;28;20103;-83
2022/04/27 05:20:45;;;;;;;48.70;24.40;;;6.10;99.90;;;;;;10450746;28;20040;-83
2022/04/27 05:25:45;;;;;;;46.67;25.30;;;6.30;99.90;;;;;;10450572;28;20380;-83
2022/04/27 05:36:05;;;;;;;47.83;24.67;;;6.70;99.90;;;;;;10449779;28;20061;-83
2022/04/27 05:41:06;;;;;;;49.97;25.97;;;6.90;99.90;;;;;;10449904;28;20052;-83
2022/04/27 05:46:06;;;;;;;41.23;21.77;;;7.10;99.90;;;;;;10449792;28;20116;-83
2022/04/27 05:51:07;;;;;;;41.33;20.70;;;7.30;99.90;;;;;;10449662;28;20112;-83
2022/04/27 05:56:08;;;;;;;37.10;19.83;;;7.60;99.90;;;;;;10450352;28;20033;-83
2022/04/27 06:01:08;;;;;;;34.60;17.60;;;7.80;99.90;;;;;;10449745;28;20094;-83
2022/04/27 06:06:09;;;;;;;35.13;18.30;;;8.20;99.90;;;;;;10449509;28;20120;-83
2022/04/27 06:11:10;;;;;;;29.67;16.33;;;8.50;99.90;;;;;;10449756;28;20439;-83
2022/04/27 06:16:10;;;;;;;24.60;13.80;;;8.60;99.90;;;;;;10449227;28;20029;-83
2022/04/27 06:21:11;;;;;;;27.03;14.23;;;8.90;99.90;;;;;;10449137;28;20041;-82
2022/04/27 06:26:12;;;;;;;25.47;15.13;;;9.10;99.90;;;;;;10450235;28;20031;-83
2022/04/27 06:31:12;;;;;;;26.00;15.10;;;9.30;99.90;;;;;;10457206;28;20040;-83
2022/04/27 06:36:13;;;;;;;28.50;15.80;;;9.40;99.90;;;;;;10455711;28;20045;-82
2022/04/27 06:41:14;;;;;;;26.60;15.40;;;9.40;99.90;;;;;;10456592;28;20047;-83
2022/04/27 06:46:14;;;;;;;30.43;17.13;;;9.60;99.90;;;;;;10456656;28;20029;-82
2022/04/27 06:51:17;;;;;;;26.55;15.32;;;9.80;99.90;;;;;;10456852;28;20035;-83
2022/04/27 06:56:18;;;;;;;23.33;11.73;;;9.90;99.90;;;;;;10456679;28;20024;-82
2022/04/27 07:01:19;;;;;;;17.08;10.48;;;10.10;99.90;;;;;;10455925;28;20056;-83
2022/04/27 07:06:20;;;;;;;15.90;8.95;;;10.50;99.90;;;;;;10456958;28;20040;-82
2022/04/27 07:11:21;;;;;;;12.98;8.15;;;10.90;99.90;;;;;;10455957;28;20108;-83
2022/04/27 07:16:22;;;;;;;12.40;8.05;;;11.30;99.90;;;;;;10453921;28;20504;-83
2022/04/27 07:21:22;;;;;;;10.02;6.75;;;11.60;99.90;;;;;;10455197;28;20036;-82
2022/04/27 07:26:23;;;;;;;11.35;7.82;;;11.60;99.90;;;;;;10455401;28;20077;-82
2022/04/27 07:31:24;;;;;;;12.48;8.23;;;11.50;99.90;;;;;;10455093;28;20048;-83
2022/04/27 07:36:24;;;;;;;13.00;8.43;;;11.40;99.90;;;;;;10455736;28;20473;-83
2022/04/27 07:41:25;;;;;;;15.23;9.23;;;11.60;99.90;;;;;;10453569;28;20377;-82
2022/04/27 07:46:26;;;;;;;16.40;9.80;;;12.10;99.90;;;;;;10454364;28;20052;-82
2022/04/27 07:51:26;;;;;;;17.60;10.13;;;12.50;99.90;;;;;;10454578;28;20602;-83
2022/04/27 07:56:27;;;;;;;15.18;9.52;;;13.10;99.90;;;;;;10453977;28;20025;-83
2022/04/27 08:01:27;;;;;;;13.57;9.25;;;13.60;99.90;;;;;;10453600;28;20442;-83
2022/04/27 08:06:28;;;;;;;15.30;8.63;;;13.70;99.90;;;;;;10453880;28;20029;-83
2022/04/27 08:11:29;;;;;;;11.40;7.72;;;13.50;99.90;;;;;;10453499;28;20035;-83
2022/04/27 08:16:29;;;;;;;11.20;8.02;;;14.00;99.90;;;;;;10453495;28;20025;-83
2022/04/27 08:21:30;;;;;;;11.27;7.50;;;14.50;92.30;;;;;;10452963;28;20048;-83
2022/04/27 08:26:31;;;;;;;9.35;6.32;;;14.70;95.30;;;;;;10452924;28;20029;-83
2022/04/27 08:31:31;;;;;;;9.63;6.90;;;15.10;90.60;;;;;;10452389;28;20088;-83
2022/04/27 08:36:32;;;;;;;10.88;7.20;;;14.80;84.90;;;;;;10452389;28;20017;-83
2022/04/27 08:41:33;;;;;;;7.35;5.72;;;14.90;84.90;;;;;;10451837;28;20114;-83
2022/04/27 08:46:36;;;;;;;10.18;6.80;;;15.10;80.00;;;;;;10452533;28;20033;-83
2022/04/27 08:51:38;;;;;;;10.70;6.72;;;14.80;78.10;;;;;;10451492;28;20388;-83
2022/04/27 08:56:39;;;;;;;7.18;5.53;;;14.80;80.10;;;;;;10451780;28;20116;-83
2022/04/27 09:01:39;;;;;;;8.50;5.70;;;14.50;81.60;;;;;;10451634;28;20040;-83
2022/04/27 09:06:41;;;;;;;8.98;6.57;;;14.00;78.70;;;;;;10450921;28;20083;-84
2022/04/27 09:11:42;;;;;;;7.50;5.68;;;13.60;85.70;;;;;;10451425;28;20028;-83
2022/04/27 09:22:04;;;;;;;10.75;6.28;;;14.10;84.50;;;;;;10450714;28;20115;-83
2022/04/27 09:27:10;;;;;;;9.63;7.10;;;14.70;84.10;;;;;;10450938;28;20078;-83
2022/04/27 09:32:17;;;;;;;9.38;6.05;;;14.50;77.70;;;;;;10450898;28;20106;-83
2022/04/27 09:37:21;;;;;;;8.35;5.85;;;14.20;79.00;;;;;;10450233;28;20037;-83
2022/04/27 09:42:30;;;;;;;11.00;6.45;;;13.90;80.00;;;;;;10450461;28;20116;-83
2022/04/27 09:47:44;;;;;;;10.18;6.70;;;14.10;77.90;;;;;;10449802;28;20024;-83
2022/04/27 09:52:46;;;;;;;10.02;6.82;;;14.10;79.90;;;;;;10449843;28;20430;-83
2022/04/27 09:57:54;;;;;;;7.22;5.28;;;14.00;85.60;;;;;;10465035;28;20061;-83
2022/04/27 10:02:57;;;;;;;7.78;5.85;;;14.50;82.70;;;;;;10448912;28;20098;-84
2022/04/27 10:08:00;;;;;;;10.93;6.78;;;14.50;79.30;;;;;;10464968;28;20036;-84
2022/04/27 10:13:02;;;;;;;26.92;20.10;;;14.20;80.20;;;;;;10464482;28;20021;-84
2022/04/27 10:18:03;;;;;;;9.35;6.28;;;14.00;80.70;;;;;;10449346;28;20040;-84
2022/04/27 10:23:31;;;;;;;14.82;10.30;;;13.90;79.90;;;;;;10449056;28;20033;-83
2022/04/27 10:28:35;;;;;;;14.65;8.57;;;14.10;80.60;;;;;;10448137;28;20048;-84
2022/04/27 10:33:49;;;;;;;9.40;6.28;;;14.70;83.50;;;;;;10449545;28;20049;-83
2022/04/27 10:39:11;;;;;;;8.32;5.40;;;15.20;75.70;;;;;;10448808;28;20045;-84
2022/04/27 10:44:12;;;;;;;10.75;6.68;;;14.90;74.40;;;;;;10448943;28;20021;-83
2022/04/27 10:49:25;;;;;;;7.05;5.38;;;14.60;75.90;;;;;;10449092;28;20028;-83
2022/04/27 10:54:27;;;;;;;8.95;5.18;;;14.50;76.40;;;;;;10460043;28;20036;-84
2022/04/27 10:59:59;;;;;;;6.28;4.32;;;14.70;76.70;;;;;;10448441;28;20037;-83
2022/04/27 11:05:12;;;;;;;26.35;21.05;;;15.30;76.30;;;;;;10433891;28;20033;-84
2022/04/27 11:10:17;;;;;;;7.60;5.80;;;16.40;71.00;;;;;;10449288;28;20029;-83
2022/04/27 11:15:22;;;;;;;5.93;4.47;;;17.40;73.30;;;;;;10453217;28;20025;-83
2022/04/27 11:20:39;;;;;;;;;;;17.90;70.80;;;;;;10456377;28;20412;-84
2022/04/27 11:25:42;;;;;;;6.93;5.05;;;17.00;66.80;;;;;;10455331;28;20376;-83
2022/04/27 11:30:43;;;;;;;16.52;12.75;;;15.80;69.30;;;;;;10453653;28;20565;-83
2022/04/27 11:35:46;;;;;;;7.03;4.55;;;15.20;71.40;;;;;;10454924;28;20052;-84
2022/04/27 11:40:49;;;;;;;9.18;7.18;;;15.00;68.40;;;;;;10454813;28;20040;-83
2022/04/27 11:45:50;;;;;;;7.70;5.15;;;14.60;68.10;;;;;;10454608;28;20571;-83
2022/04/27 11:50:52;;;;;;;10.27;8.38;;;14.40;71.50;;;;;;10469777;28;20090;-83
2022/04/27 11:55:52;;;;;;;6.85;4.10;;;14.30;73.80;;;;;;10454440;28;20051;-83
2022/04/27 12:00:57;;;;;;;5.03;3.80;;;14.10;71.20;;;;;;10453895;28;20048;-82
2022/04/27 12:05:58;;;;;;;9.82;6.97;;;13.90;68.90;;;;;;10453399;28;20029;-82
2022/04/27 12:11:01;;;;;;;9.45;7.07;;;13.80;72.30;;;;;;10453878;28;20032;-83
2022/04/27 12:16:02;;;;;;;4.97;3.78;;;14.00;70.60;;;;;;10453389;28;20029;-83
2022/04/27 12:21:19;;;;;;;21.95;15.18;;;14.20;70.10;;;;;;10453227;28;20484;-83
2022/04/27 12:26:19;;;;;;;13.90;8.90;;;14.30;68.70;;;;;;10452825;28;20035;-83
2022/04/27 12:31:26;;;;;;;8.88;6.30;;;14.40;70.90;;;;;;10452744;28;20480;-83
2022/04/27 12:42:09;;;;;;;15.75;9.68;;;14.80;68.70;;;;;;10451165;28;20499;-83
2022/04/27 12:47:11;;;;;;;37.97;22.73;;;14.90;71.00;;;;;;10471854;28;20033;-83
2022/04/27 12:52:29;;;;;;;25.65;15.35;;;15.10;67.90;;;;;;10487117;28;20087;-83
2022/04/27 12:57:44;;;;;;;9.40;5.25;;;15.30;69.80;;;;;;10479385;28;20029;-83
2022/04/27 13:02:44;;;;;;;6.22;4.05;;;15.40;66.50;;;;;;10473923;28;20052;-82
2022/04/27 13:07:45;;;;;;;13.02;7.95;;;15.30;66.80;;;;;;10481874;28;20048;-84
2022/04/27 13:12:46;;;;;;;13.32;7.25;;;15.50;70.00;;;;;;10460671;28;20031;-83
2022/04/27 13:17:47;;;;;;;6.93;4.07;;;15.70;71.40;;;;;;10475010;28;20033;-82
2022/04/27 13:22:47;;;;;;;4.57;3.60;;;15.70;69.70;;;;;;10485208;28;20074;-82
2022/04/27 13:27:48;;;;;;;5.07;3.70;;;15.40;69.50;;;;;;10485167;28;20532;-83
2022/04/27 13:32:49;;;;;;;4.88;4.00;;;15.40;70.30;;;;;;10471795;28;20044;-83
2022/04/27 13:37:50;;;;;;;6.60;4.35;;;15.20;70.70;;;;;;10480483;28;20041;-83
2022/04/27 13:42:51;;;;;;;7.30;4.88;;;15.20;71.90;;;;;;10482642;28;20035;-85
2022/04/27 13:47:51;;;;;;;75.63;44.72;;;14.80;70.70;;;;;;10479084;28;20044;-85
2022/04/27 13:52:53;;;;;;;6.53;3.85;;;14.80;70.60;;;;;;10485493;28;20021;-86
2022/04/27 13:57:55;;;;;;;23.63;12.13;;;14.70;69.70;;;;;;10525895;22;20109;-83
2022/04/27 14:02:56;;;;;;;19.05;9.70;;;14.80;70.80;;;;;;10522993;28;20021;-84
2022/04/27 14:07:57;;;;;;;4.85;3.40;;;15.20;72.20;;;;;;10520272;28;20016;-84
2022/04/27 14:13:17;;;;;;;31.50;18.10;;;15.60;70.50;;;;;;10525006;28;20023;-83
2022/04/27 14:18:18;;;;;;;35.42;19.85;;;16.10;70.30;;;;;;10520284;28;20031;-84
2022/04/27 14:23:19;;;;;;;5.88;4.35;;;15.70;68.80;;;;;;10512356;28;20153;-83
2022/04/27 14:28:22;;;;;;;17.30;10.90;;;15.40;67.40;;;;;;10512997;28;20526;-82
2022/04/27 14:33:23;;;;;;;30.85;16.75;;;15.10;69.60;;;;;;10527399;28;20031;-84
2022/04/27 14:38:24;;;;;;;8.38;4.22;;;15.10;69.50;;;;;;10528938;28;20032;-84
2022/04/27 14:43:25;;;;;;;5.75;4.20;;;15.20;66.90;;;;;;10515457;28;20034;-84
2022/04/27 14:48:26;;;;;;;7.43;4.82;;;14.90;67.90;;;;;;10519747;28;20039;-84
2022/04/27 14:53:27;;;;;;;6.07;4.28;;;14.40;68.40;;;;;;10523903;28;20032;-83
2022/04/27 14:58:27;;;;;;;14.60;9.20;;;14.20;70.10;;;;;;10509701;28;20048;-84
2022/04/27 15:03:28;;;;;;;14.88;9.13;;;14.00;71.40;;;;;;10523876;28;20210;-82
2022/04/27 15:08:29;;;;;;;10.90;6.60;;;13.80;73.40;;;;;;10519105;28;20119;-82
2022/04/27 15:13:29;;;;;;;9.48;5.15;;;13.80;74.10;;;;;;10526027;28;20031;-83
2022/04/27 15:18:30;;;;;;;6.90;4.68;;;13.70;74.60;;;;;;10518953;28;20044;-83
2022/04/27 15:23:30;;;;;;;10.50;5.82;;;13.70;74.40;;;;;;10520398;28;20032;-84
2022/04/27 15:28:31;;;;;;;7.63;4.88;;;13.60;76.20;;;;;;10518758;28;20024;-83
2022/04/27 15:33:32;;;;;;;7.53;4.95;;;13.60;75.40;;;;;;10513765;28;20423;-83
2022/04/27 15:38:33;;;;;;;7.72;4.68;;;13.60;76.30;;;;;;10527325;28;20039;-83
2022/04/27 15:43:35;;;;;;;8.98;5.57;;;13.60;76.60;;;;;;10534695;28;20035;-82
2022/04/27 15:48:35;;;;;;;7.43;5.43;;;13.60;77.00;;;;;;10511127;28;20020;-83
2022/04/27 15:53:36;;;;;;;7.18;5.10;;;13.70;79.20;;;;;;10514996;28;20491;-85
2022/04/27 15:58:37;;;;;;;8.27;5.10;;;13.70;77.90;;;;;;10529432;28;20055;-83
2022/04/27 16:03:38;;;;;;;8.55;5.53;;;13.70;78.60;;;;;;10503418;28;20421;-84
2022/04/27 16:08:39;;;;;;;13.02;10.20;;;13.70;79.10;;;;;;10523338;28;20028;-83
2022/04/27 16:13:40;;;;;;;144.98;77.35;;;13.70;80.20;;;;;;10524263;28;20279;-84
2022/04/27 16:18:42;;;;;;;194.48;107.68;;;13.60;79.90;;;;;;10530702;28;20150;-83
2022/04/27 16:23:43;;;;;;;527.22;313.27;;;13.50;77.70;;;;;;10515601;28;20055;-84
2022/04/27 16:28:44;;;;;;;114.45;56.25;;;13.40;77.80;;;;;;10526827;28;20027;-83
2022/04/27 16:33:45;;;;;;;442.10;238.63;;;13.30;79.60;;;;;;10528774;28;20039;-84
2022/04/27 16:38:46;;;;;;;222.07;110.20;;;13.20;80.70;;;;;;10514296;28;20039;-83
2022/04/27 16:43:47;;;;;;;112.80;54.60;;;13.10;81.60;;;;;;10511302;28;20066;-82
2022/04/27 16:48:48;;;;;;;72.63;37.85;;;13.10;80.90;;;;;;10518815;28;20096;-83
2022/04/27 16:53:49;;;;;;;80.63;47.40;;;13.00;81.30;;;;;;10517380;28;20083;-84
2022/04/27 16:58:50;;;;;;;27.20;18.38;;;12.90;82.70;;;;;;10513988;28;20043;-82
2022/04/27 17:03:50;;;;;;;20.33;13.90;;;12.80;81.80;;;;;;10528250;28;20050;-82
2022/04/27 17:08:54;;;;;;;15.27;7.28;;;12.90;82.00;;;;;;10518663;28;20093;-82
2022/04/27 17:13:55;;;;;;;15.90;9.20;;;12.80;81.50;;;;;;10522135;28;20029;-80
2022/04/27 17:18:55;;;;;;;15.68;7.18;;;12.70;82.60;;;;;;10522996;28;20040;-82
2022/04/27 17:23:57;;;;;;;21.77;15.45;;;12.60;83.80;;;;;;10516550;28;20031;-83
2022/04/27 17:28:57;;;;;;;13.65;9.50;;;12.50;86.90;;;;;;10524336;28;20032;-85
2022/04/27 17:33:58;;;;;;;15.57;8.63;;;12.40;88.00;;;;;;10521487;28;20064;-84
2022/04/27 17:38:59;;;;;;;14.80;8.23;;;12.30;87.10;;;;;;10505031;28;20483;-81
2022/04/27 17:44:00;;;;;;;14.02;8.40;;;12.20;91.20;;;;;;10520413;28;20119;-82
2022/04/27 17:49:01;;;;;;;13.73;8.35;;;12.00;94.40;;;;;;10518658;28;20025;-80
2022/04/27 17:54:03;;;;;;;15.23;9.23;;;11.80;96.00;;;;;;10476664;28;20053;-82
2022/04/27 17:59:04;;;;;;;12.55;7.65;;;11.60;98.10;;;;;;10488573;28;20098;-81
2022/04/27 18:04:05;;;;;;;15.05;8.63;;;11.40;99.90;;;;;;10481565;28;20032;-81
2022/04/27 18:09:07;;;;;;;14.80;8.63;;;11.20;99.90;;;;;;10483685;28;20024;-81
2022/04/27 18:14:07;;;;;;;16.95;8.55;;;11.10;99.90;;;;;;10485921;28;20021;-81
2022/04/27 18:19:08;;;;;;;12.45;8.05;;;11.10;99.90;;;;;;10484420;28;20043;-82
2022/04/27 18:24:09;;;;;;;11.77;8.48;;;11.10;99.90;;;;;;10478508;28;20032;-81
2022/04/27 18:29:09;;;;;;;17.55;8.93;;;11.00;99.90;;;;;;10497344;28;20052;-81
2022/04/27 18:34:10;;;;;;;14.90;8.68;;;11.00;99.90;;;;;;10489409;28;20029;-81
2022/04/27 18:39:11;;;;;;;17.38;10.02;;;10.80;99.90;;;;;;10489874;28;20037;-82
2022/04/27 18:54:51;;;;;;;19.95;11.10;;;10.70;99.90;;;;;;10504175;22;20064;-81
2022/04/27 18:59:53;;;;;;;20.02;11.07;;;10.70;99.90;;;;;;10478563;28;20080;-81
2022/04/27 19:04:54;;;;;;;25.42;12.98;;;10.50;99.90;;;;;;10450799;28;20038;-82
2022/04/27 19:09:55;;;;;;;23.35;13.18;;;10.50;99.90;;;;;;10478346;28;20036;-82
2022/04/27 19:14:56;;;;;;;20.10;11.82;;;10.60;99.90;;;;;;10460835;28;20031;-84
2022/04/27 19:19:57;;;;;;;23.42;11.93;;;10.60;99.90;;;;;;10470642;28;20123;-87
2022/04/27 19:24:57;;;;;;;24.00;12.43;;;10.60;99.90;;;;;;10441591;28;20395;-83
2022/04/27 19:29:58;;;;;;;24.13;12.70;;;10.70;99.90;;;;;;10449322;28;20025;-84
2022/04/27 19:35:02;;;;;;;24.77;13.68;;;10.60;99.90;;;;;;10456450;28;20028;-82
2022/04/27 19:40:03;;;;;;;22.58;12.38;;;10.50;99.90;;;;;;10458568;28;20116;-84
2022/04/27 19:45:04;;;;;;;20.13;11.30;;;10.50;99.90;;;;;;10449800;28;20457;-83
2022/04/27 19:50:06;;;;;;;24.58;12.98;;;10.50;99.90;;;;;;10464234;28;20029;-82
2022/04/27 19:55:07;;;;;;;23.77;13.05;;;10.30;99.90;;;;;;10471068;28;20500;-82
2022/04/27 20:00:10;;;;;;;18.90;11.37;;;10.00;99.90;;;;;;10423919;28;20039;-82
2022/04/27 20:05:15;;;;;;;23.40;12.80;;;9.80;99.90;;;;;;10419277;28;20049;-83
2022/04/27 20:10:16;;;;;;;20.10;12.15;;;9.50;99.90;;;;;;10435464;28;20021;-83
2022/04/27 20:15:17;;;;;;;21.60;12.13;;;9.30;99.90;;;;;;10429540;28;20029;-82
2022/04/27 20:20:17;;;;;;;20.10;11.33;;;9.20;99.90;;;;;;10436993;28;20041;-82
2022/04/27 20:25:18;;;;;;;17.97;10.53;;;9.00;99.90;;;;;;10431108;28;20309;-84
2022/04/27 20:30:19;;;;;;;21.03;11.33;;;8.80;99.90;;;;;;10411103;28;20032;-82
2022/04/27 20:35:19;;;;;;;21.47;11.70;;;8.60;99.90;;;;;;10410340;28;20018;-82
2022/04/27 20:40:20;;;;;;;23.27;12.13;;;8.40;99.90;;;;;;10432318;28;20517;-83
2022/04/27 20:45:21;;;;;;;19.57;11.53;;;8.30;99.90;;;;;;10430214;28;20040;-83
2022/04/27 20:50:21;;;;;;;22.83;12.13;;;8.10;99.90;;;;;;10429478;28;20033;-82
2022/04/27 20:55:22;;;;;;;25.03;12.80;;;7.90;99.90;;;;;;10436161;28;20115;-82
2022/04/27 21:00:22;;;;;;;22.67;11.87;;;7.80;99.90;;;;;;10434839;28;20056;-85
2022/04/27 21:05:23;;;;;;;25.20;12.20;;;7.60;99.90;;;;;;10412161;28;20034;-83
2022/04/27 21:10:24;;;;;;;21.20;12.37;;;7.50;99.90;;;;;;10443472;28;20052;-84
2022/04/27 21:15:25;;;;;;;22.57;12.77;;;7.30;99.90;;;;;;10447321;28;20044;-82
2022/04/27 21:20:26;;;;;;;21.37;12.30;;;7.10;99.90;;;;;;10419032;28;20396;-81
2022/04/27 21:25:28;;;;;;;21.37;12.00;;;7.00;99.90;;;;;;10424027;28;20039;-82
2022/04/27 21:30:29;;;;;;;22.87;12.67;;;6.90;99.90;;;;;;10426591;28;20484;-82
2022/04/27 21:35:30;;;;;;;25.60;12.53;;;6.90;99.90;;;;;;10449510;28;20365;-82
2022/04/27 21:40:31;;;;;;;19.47;11.57;;;6.90;99.90;;;;;;10474995;28;20040;-82
2022/04/27 21:45:32;;;;;;;19.93;11.63;;;6.80;99.90;;;;;;10439194;28;20106;-83
2022/04/27 21:50:33;;;;;;;23.17;13.00;;;6.70;99.90;;;;;;10420786;28;20036;-84
2022/04/27 21:55:33;;;;;;;25.67;12.57;;;6.70;99.90;;;;;;10411938;28;20049;-82
2022/04/27 22:01:06;;;;;;;24.13;13.37;;;6.70;99.90;;;;;;10447068;28;20088;-83
2022/04/27 22:06:07;;;;;;;24.63;13.33;;;6.60;99.90;;;;;;10429626;28;20357;-83
2022/04/27 22:11:08;;;;;;;23.20;12.70;;;6.60;99.90;;;;;;10415048;28;20037;-83
2022/04/27 22:16:12;;;;;;;20.53;11.70;;;6.50;99.90;;;;;;10417633;28;20154;-84
2022/04/27 22:21:14;;;;;;;21.53;11.90;;;6.50;99.90;;;;;;10415344;28;20076;-83
2022/04/27 22:26:15;;;;;;;25.27;12.10;;;6.40;99.90;;;;;;10408054;28;20037;-83
2022/04/27 22:31:17;;;;;;;23.33;11.67;;;6.30;99.90;;;;;;10410736;28;20108;-82
2022/04/27 22:36:19;;;;;;;23.07;12.93;;;6.30;99.90;;;;;;10430874;28;20435;-83
2022/04/27 22:41:21;;;;;;;23.17;12.40;;;6.20;99.90;;;;;;10413073;28;20045;-83
2022/04/27 22:46:22;;;;;;;20.80;11.83;;;6.20;99.90;;;;;;10436006;28;20117;-82
2022/04/27 22:51:23;;;;;;;24.80;12.27;;;6.10;99.90;;;;;;10421304;28;20117;-84
2022/04/27 22:56:25;;;;;;;23.07;12.47;;;6.10;99.90;;;;;;10409781;28;20465;-82
2022/04/27 23:01:25;;;;;;;22.67;11.60;;;6.10;99.90;;;;;;10444296;28;20037;-82
2022/04/27 23:06:26;;;;;;;24.10;13.00;;;6.00;99.90;;;;;;10441265;28;20038;-82
2022/04/27 23:11:27;;;;;;;23.00;11.93;;;6.00;99.90;;;;;;10414002;28;20030;-81
2022/04/27 23:16:28;;;;;;;24.60;13.10;;;5.80;99.90;;;;;;10420273;28;20034;-83
2022/04/27 23:21:29;;;;;;;24.60;13.67;;;5.80;99.90;;;;;;10455194;28;20045;-83
2022/04/27 23:26:29;;;;;;;24.67;13.50;;;5.60;99.90;;;;;;10434750;28;20033;-82
2022/04/27 23:31:30;;;;;;;23.60;12.90;;;5.60;99.90;;;;;;10439267;28;20479;-85
2022/04/27 23:36:31;;;;;;;26.13;14.30;;;5.60;99.90;;;;;;10418208;28;20044;-83
2022/04/27 23:41:32;;;;;;;27.03;14.60;;;5.60;99.90;;;;;;10411597;28;20126;-82
2022/04/27 23:46:33;;;;;;;27.27;15.50;;;5.60;99.90;;;;;;10445028;28;20095;-82
2022/04/27 23:51:34;;;;;;;32.50;18.57;;;5.50;99.90;;;;;;10437661;28;20043;-83
2022/04/27 23:56:34;;;;;;;30.97;17.40;;;5.60;99.90;;;;;;10415462;28;20137;-82
